| time (UTC) | temp F | wind direction | speed MPH | gust MPH | rain 1hr in | rain 24hr in | rain mn in | humidity % | barometer mb |
| 20260509235521 | 54 | 203 | 0.0 | 3.0 | 0.01 | 0.35 | 0.35 | 93 | 1013.2 |
| 20260509235018 | 54 | 188 | 1.0 | 3.0 | 0.02 | 0.35 | 0.35 | 93 | 1013.1 |
| 20260509234556 | 54 | 219 | 0.0 | 2.0 | 0.02 | 0.35 | 0.35 | 93 | 1013.1 |
| 20260509234018 | 54 | 226 | 1.0 | 2.0 | 0.02 | 0.35 | 0.35 | 93 | 1013.1 |
| 20260509233517 | 54 | 0 | 0.0 | 2.0 | 0.02 | 0.34 | 0.34 | 93 | 1013.1 |
| 20260509233041 | 54 | 206 | 0.0 | 4.0 | 0.04 | 0.34 | 0.34 | 93 | 1013.1 |
| 20260509232519 | 54 | 127 | 1.0 | 4.0 | 0.08 | 0.34 | 0.34 | 93 | 1013.0 |
| 20260509232018 | 54 | 219 | 1.0 | 5.0 | 0.11 | 0.34 | 0.34 | 93 | 1013.0 |
| 20260509231548 | 54 | 0 | 1.0 | 5.0 | 0.13 | 0.34 | 0.34 | 93 | 1013.0 |
| 20260509231024 | 54 | 99 | 1.0 | 3.0 | 0.15 | 0.34 | 0.34 | 93 | 1013.0 |
| 20260509230517 | 54 | 170 | 1.0 | 4.0 | 0.16 | 0.34 | 0.34 | 93 | 1013.0 |
| 20260509230038 | 54 | 115 | 0.0 | 4.0 | 0.17 | 0.34 | 0.34 | 93 | 1013.0 |
| 20260509225521 | 54 | 219 | 1.0 | 3.0 | 0.18 | 0.34 | 0.34 | 93 | 1013.0 |
| 20260509225021 | 54 | 148 | 0.0 | 6.0 | 0.19 | 0.33 | 0.33 | 93 | 1013.0 |
| 20260509224536 | 54 | 139 | 1.0 | 6.0 | 0.20 | 0.33 | 0.33 | 92 | 1012.8 |
| 20260509224018 | 54 | 198 | 2.0 | 6.0 | 0.20 | 0.32 | 0.32 | 92 | 1012.8 |
| 20260509223521 | 54 | 83 | 2.0 | 14.0 | 0.21 | 0.32 | 0.32 | 92 | 1012.9 |
| 20260509223036 | 54 | 153 | 4.0 | 14.0 | 0.19 | 0.30 | 0.30 | 92 | 1012.9 |
| 20260509222518 | 54 | 221 | 4.0 | 10.0 | 0.15 | 0.26 | 0.26 | 92 | 1013.0 |
| 20260509222018 | 54 | 206 | 2.0 | 10.0 | 0.13 | 0.23 | 0.23 | 92 | 1012.7 |
| 20260509221535 | 54 | 231 | 3.0 | 7.0 | 0.10 | 0.20 | 0.20 | 91 | 1012.7 |
| 20260509221018 | 54 | 0 | 1.0 | 5.0 | 0.09 | 0.19 | 0.19 | 91 | 1012.5 |
| 20260509220517 | 54 | 153 | 2.0 | 5.0 | 0.08 | 0.18 | 0.18 | 91 | 1012.5 |
| 20260509220038 | 54 | 155 | 1.0 | 5.0 | 0.07 | 0.17 | 0.17 | 91 | 1012.5 |
| 20260509215518 | 54 | 203 | 1.0 | 6.0 | 0.09 | 0.16 | 0.16 | 91 | 1012.4 |
| 20260509215017 | 54 | 210 | 2.0 | 8.0 | 0.09 | 0.14 | 0.14 | 90 | 1012.4 |
| 20260509214538 | 55 | 234 | 3.0 | 9.0 | 0.09 | 0.13 | 0.13 | 90 | 1012.4 |
| 20260509214018 | 55 | 113 | 2.0 | 10.0 | 0.08 | 0.12 | 0.12 | 90 | 1012.5 |
| 20260509213522 | 55 | 210 | 3.0 | 10.0 | 0.07 | 0.11 | 0.11 | 90 | 1012.6 |
| 20260509213041 | 55 | 215 | 2.0 | 10.0 | 0.07 | 0.11 | 0.11 | 90 | 1012.5 |
| 20260509212521 | 55 | 221 | 3.0 | 10.0 | 0.07 | 0.11 | 0.11 | 90 | 1012.5 |
| 20260509212020 | 55 | 164 | 3.0 | 10.0 | 0.06 | 0.10 | 0.10 | 90 | 1012.5 |
| 20260509211539 | 55 | 214 | 3.0 | 9.0 | 0.06 | 0.10 | 0.10 | 89 | 1012.4 |
| 20260509211021 | 55 | 200 | 3.0 | 9.0 | 0.06 | 0.10 | 0.10 | 89 | 1012.2 |
| 20260509210521 | 55 | 237 | 4.0 | 11.0 | 0.06 | 0.10 | 0.10 | 88 | 1012.1 |
| 20260509210036 | 56 | 214 | 5.0 | 14.0 | 0.06 | 0.10 | 0.10 | 87 | 1012.1 |
| 20260509205521 | 56 | 217 | 6.0 | 16.0 | 0.03 | 0.07 | 0.07 | 85 | 1012.2 |
| 20260509205022 | 57 | 122 | 7.0 | 16.0 | 0.00 | 0.04 | 0.04 | 81 | 1011.9 |
| 20260509204536 | 57 | 221 | 6.0 | 17.0 | 0.00 | 0.04 | 0.04 | 80 | 1011.9 |
| 20260509204018 | 58 | 212 | 6.0 | 17.0 | 0.00 | 0.04 | 0.04 | 79 | 1011.7 |
| 20260509203517 | 58 | 141 | 6.0 | 16.0 | 0.00 | 0.04 | 0.04 | 79 | 1012.2 |
| 20260509203039 | 59 | 221 | 6.0 | 16.0 | 0.00 | 0.04 | 0.04 | 80 | 1012.2 |
| 20260509202518 | 59 | 221 | 5.0 | 13.0 | 0.00 | 0.04 | 0.04 | 80 | 1012.0 |
| 20260509202019 | 59 | 237 | 4.0 | 14.0 | 0.00 | 0.04 | 0.04 | 79 | 1012.0 |
| 20260509201538 | 60 | 184 | 6.0 | 14.0 | 0.00 | 0.04 | 0.04 | 77 | 1012.1 |
| 20260509201018 | 60 | 126 | 5.0 | 12.0 | 0.00 | 0.04 | 0.04 | 75 | 1011.8 |
| 20260509200517 | 60 | 224 | 5.0 | 11.0 | 0.00 | 0.04 | 0.04 | 75 | 1012.0 |
| 20260509200037 | 60 | 200 | 4.0 | 11.0 | 0.00 | 0.04 | 0.04 | 74 | 1011.8 |
| 20260509195520 | 60 | 243 | 5.0 | 13.0 | 0.00 | 0.04 | 0.04 | 73 | 1011.8 |
| 20260509195021 | 60 | 117 | 4.0 | 14.0 | 0.00 | 0.04 | 0.04 | 72 | 1012.0 |
| 20260509194538 | 60 | 231 | 6.0 | 14.0 | 0.00 | 0.04 | 0.04 | 72 | 1011.9 |
| 20260509194017 | 60 | 234 | 4.0 | 11.0 | 0.00 | 0.04 | 0.04 | 72 | 1011.9 |
| 20260509193519 | 60 | 198 | 4.0 | 11.0 | 0.00 | 0.04 | 0.04 | 72 | 1012.0 |
| 20260509193036 | 60 | 98 | 5.0 | 13.0 | 0.00 | 0.04 | 0.04 | 71 | 1011.9 |
| 20260509192518 | 61 | 230 | 5.0 | 13.0 | 0.00 | 0.04 | 0.04 | 72 | 1012.1 |
| 20260509192021 | 61 | 148 | 4.0 | 13.0 | 0.00 | 0.04 | 0.04 | 73 | 1012.0 |
| 20260509191532 | 61 | 174 | 5.0 | 15.0 | 0.00 | 0.04 | 0.04 | 73 | 1012.2 |
| 20260509191017 | 61 | 251 | 6.0 | 15.0 | 0.00 | 0.04 | 0.04 | 73 | 1012.1 |
| 20260509190517 | 60 | 215 | 5.0 | 14.0 | 0.00 | 0.04 | 0.04 | 74 | 1012.1 |
| 20260509190041 | 60 | 186 | 4.0 | 14.0 | 0.00 | 0.04 | 0.04 | 74 | 1012.1 |
| 20260509185518 | 60 | 212 | 4.0 | 11.0 | 0.00 | 0.04 | 0.04 | 74 | 1012.1 |
| 20260509185018 | 60 | 105 | 3.0 | 8.0 | 0.00 | 0.04 | 0.04 | 74 | 1012.2 |
| 20260509184538 | 60 | 178 | 4.0 | 14.0 | 0.00 | 0.04 | 0.04 | 74 | 1012.1 |
| 20260509184017 | 60 | 181 | 5.0 | 14.0 | 0.00 | 0.04 | 0.04 | 73 | 1012.2 |
| 20260509183518 | 60 | 229 | 3.0 | 12.0 | 0.00 | 0.04 | 0.04 | 74 | 1012.4 |
| 20260509183050 | 59 | 207 | 5.0 | 12.0 | 0.00 | 0.04 | 0.04 | 74 | 1012.3 |
| 20260509182519 | 59 | 217 | 4.0 | 10.0 | 0.00 | 0.04 | 0.04 | 75 | 1012.2 |
| 20260509182018 | 59 | 181 | 4.0 | 11.0 | 0.01 | 0.04 | 0.04 | 76 | 1012.3 |
| 20260509181545 | 58 | 230 | 5.0 | 11.0 | 0.01 | 0.04 | 0.04 | 77 | 1012.2 |
| 20260509181017 | 58 | 172 | 3.0 | 10.0 | 0.01 | 0.04 | 0.04 | 78 | 1012.3 |
| 20260509180521 | 57 | 186 | 4.0 | 10.0 | 0.01 | 0.04 | 0.04 | 78 | 1012.4 |
| 20260509180037 | 57 | 162 | 3.0 | 10.0 | 0.01 | 0.04 | 0.04 | 78 | 1012.2 |
| 20260509175519 | 57 | 153 | 2.0 | 7.0 | 0.01 | 0.04 | 0.04 | 78 | 1012.2 |
| 20260509175019 | 57 | 230 | 3.0 | 8.0 | 0.01 | 0.04 | 0.04 | 78 | 1012.3 |
| 20260509174535 | 57 | 221 | 3.0 | 11.0 | 0.01 | 0.04 | 0.04 | 78 | 1012.9 |
| 20260509174020 | 57 | 191 | 3.0 | 11.0 | 0.01 | 0.04 | 0.04 | 79 | 1013.2 |
| 20260509173520 | 57 | 267 | 3.0 | 10.0 | 0.01 | 0.04 | 0.04 | 78 | 1013.1 |
| 20260509173038 | 57 | 161 | 5.0 | 10.0 | 0.01 | 0.04 | 0.04 | 77 | 1013.1 |
| 20260509172520 | 58 | 200 | 5.0 | 10.0 | 0.01 | 0.04 | 0.04 | 76 | 1013.1 |
| 20260509172020 | 58 | 111 | 3.0 | 12.0 | 0.00 | 0.03 | 0.03 | 76 | 1013.1 |
| 20260509171540 | 58 | 167 | 5.0 | 12.0 | 0.00 | 0.03 | 0.03 | 74 | 1013.1 |
| 20260509171019 | 59 | 229 | 3.0 | 10.0 | 0.00 | 0.03 | 0.03 | 74 | 1013.1 |
| 20260509170519 | 60 | 188 | 2.0 | 10.0 | 0.00 | 0.03 | 0.03 | 72 | 1012.9 |
| 20260509170038 | 60 | 221 | 4.0 | 9.0 | 0.00 | 0.03 | 0.03 | 71 | 1013.0 |
| 20260509165519 | 60 | 151 | 3.0 | 9.0 | 0.00 | 0.03 | 0.03 | 71 | 1012.8 |
| 20260509165019 | 60 | 293 | 1.0 | 11.0 | 0.00 | 0.03 | 0.03 | 71 | 1012.8 |
| 20260509164537 | 60 | 261 | 5.0 | 11.0 | 0.00 | 0.03 | 0.03 | 70 | 1012.9 |
| 20260509164018 | 60 | 197 | 2.0 | 6.0 | 0.00 | 0.03 | 0.03 | 72 | 1013.0 |
| 20260509163519 | 59 | 192 | 3.0 | 11.0 | 0.00 | 0.03 | 0.03 | 72 | 1013.0 |
| 20260509163036 | 59 | 181 | 5.0 | 11.0 | 0.00 | 0.03 | 0.03 | 71 | 1012.8 |
| 20260509162519 | 60 | 107 | 5.0 | 11.0 | 0.00 | 0.03 | 0.03 | 71 | 1012.9 |
| 20260509162022 | 60 | 218 | 5.0 | 11.0 | 0.00 | 0.03 | 0.03 | 71 | 1012.9 |
| 20260509161539 | 60 | 176 | 3.0 | 10.0 | 0.00 | 0.03 | 0.03 | 71 | 1012.9 |
| 20260509161019 | 60 | 155 | 5.0 | 12.0 | 0.00 | 0.03 | 0.03 | 72 | 1013.0 |
| 20260509160522 | 60 | 62 | 5.0 | 12.0 | 0.00 | 0.03 | 0.03 | 72 | 1013.0 |
| 20260509160037 | 60 | 101 | 4.0 | 9.0 | 0.00 | 0.03 | 0.03 | 72 | 1013.1 |
| 20260509155519 | 59 | 108 | 4.0 | 8.0 | 0.00 | 0.03 | 0.03 | 73 | 1013.2 |
| 20260509155019 | 59 | 211 | 3.0 | 8.0 | 0.00 | 0.03 | 0.03 | 73 | 1013.3 |
| 20260509154538 | 59 | 74 | 3.0 | 9.0 | 0.00 | 0.03 | 0.03 | 75 | 1013.2 |
| 20260509154019 | 58 | 82 | 5.0 | 10.0 | 0.00 | 0.03 | 0.03 | 74 | 1013.4 |
| 20260509153522 | 58 | 135 | 6.0 | 11.0 | 0.00 | 0.03 | 0.03 | 75 | 1013.3 |
| 20260509153037 | 57 | 91 | 5.0 | 11.0 | 0.00 | 0.03 | 0.03 | 76 | 1013.5 |
| 20260509152519 | 57 | 218 | 2.0 | 11.0 | 0.00 | 0.03 | 0.03 | 77 | 1013.6 |
| 20260509152020 | 57 | 218 | 6.0 | 11.0 | 0.00 | 0.03 | 0.03 | 76 | 1013.5 |
| 20260509151539 | 56 | 87 | 4.0 | 11.0 | 0.00 | 0.03 | 0.03 | 77 | 1013.5 |
| 20260509151019 | 56 | 78 | 5.0 | 11.0 | 0.00 | 0.03 | 0.03 | 77 | 1013.7 |
| 20260509150519 | 56 | 124 | 4.0 | 10.0 | 0.00 | 0.03 | 0.03 | 78 | 1013.6 |
| 20260509150037 | 55 | 131 | 3.0 | 7.0 | 0.00 | 0.03 | 0.03 | 79 | 1013.6 |
| 20260509145520 | 54 | 65 | 3.0 | 9.0 | 0.00 | 0.03 | 0.03 | 80 | 1013.5 |
| 20260509145019 | 54 | 146 | 4.0 | 9.0 | 0.00 | 0.03 | 0.03 | 81 | 1013.6 |
| 20260509144541 | 54 | 111 | 2.0 | 9.0 | 0.00 | 0.03 | 0.03 | 82 | 1013.5 |
| 20260509144019 | 54 | 120 | 4.0 | 9.0 | 0.00 | 0.03 | 0.03 | 83 | 1013.4 |
| 20260509143520 | 53 | 148 | 2.0 | 8.0 | 0.00 | 0.03 | 0.03 | 84 | 1013.8 |
| 20260509143039 | 53 | 107 | 3.0 | 7.0 | 0.00 | 0.03 | 0.03 | 85 | 1013.8 |
| 20260509142518 | 53 | 146 | 3.0 | 7.0 | 0.00 | 0.03 | 0.03 | 86 | 1013.8 |
| 20260509142019 | 52 | 150 | 3.0 | 6.0 | 0.00 | 0.03 | 0.03 | 86 | 1013.8 |
| 20260509141537 | 52 | 149 | 1.0 | 3.0 | 0.00 | 0.03 | 0.03 | 88 | 1014.1 |
| 20260509141022 | 52 | 124 | 1.0 | 2.0 | 0.00 | 0.03 | 0.03 | 89 | 1014.2 |
| 20260509140519 | 52 | 85 | 0.0 | 4.0 | 0.00 | 0.03 | 0.03 | 90 | 1014.1 |
| 20260509140038 | 51 | 71 | 1.0 | 4.0 | 0.00 | 0.03 | 0.03 | 90 | 1014.0 |
| 20260509135520 | 51 | 23 | 0.0 | 3.0 | 0.00 | 0.03 | 0.03 | 90 | 1014.1 |
| 20260509135022 | 50 | 0 | 0.0 | 3.0 | 0.00 | 0.03 | 0.03 | 91 | 1014.4 |
| 20260509134538 | 49 | 153 | 2.0 | 3.0 | 0.00 | 0.03 | 0.03 | 91 | 1014.5 |
| 20260509134019 | 49 | 0 | 0.0 | 3.0 | 0.00 | 0.03 | 0.03 | 92 | 1014.6 |
| 20260509133519 | 49 | 63 | 1.0 | 3.0 | 0.00 | 0.03 | 0.03 | 92 | 1014.7 |
| 20260509133038 | 49 | 143 | 0.0 | 2.0 | 0.00 | 0.03 | 0.03 | 93 | 1014.5 |
| 20260509132524 | 48 | 127 | 0.0 | 1.0 | 0.00 | 0.03 | 0.03 | 93 | 1014.5 |
| 20260509132019 | 47 | 0 | 0.0 | 1.0 | 0.00 | 0.03 | 0.03 | 92 | 1014.8 |
| 20260509131537 | 47 | 0 | 0.0 | 1.0 | 0.00 | 0.03 | 0.03 | 92 | 1014.8 |
| 20260509131019 | 47 | 0 | 0.0 | 1.0 | 0.00 | 0.03 | 0.03 | 93 | 1014.8 |
| 20260509130522 | 47 | 60 | 0.0 | 1.0 | 0.00 | 0.03 | 0.03 | 92 | 1014.7 |
| 20260509130037 | 47 | 0 | 0.0 | 1.0 | 0.00 | 0.03 | 0.03 | 95 | 1014.7 |
| 20260509125518 | 45 | 0 | 0.0 | 0.0 | 0.00 | 0.03 | 0.03 | 93 | 1014.8 |
| 20260509125018 | 45 | 0 | 0.0 | 1.0 | 0.00 | 0.03 | 0.03 | 92 | 1014.9 |
| 20260509124532 | 44 | 0 | 0.0 | 1.0 | 0.00 | 0.03 | 0.03 | 92 | 1015.0 |
| 20260509124022 | 44 | 0 | 0.0 | 1.0 | 0.00 | 0.03 | 0.03 | 93 | 1015.0 |
| 20260509123519 | 44 | 0 | 0.0 | 0.0 | 0.01 | 0.03 | 0.03 | 92 | 1014.8 |
| 20260509123038 | 43 | 0 | 0.0 | 0.0 | 0.01 | 0.03 | 0.03 | 92 | 1014.6 |
| 20260509122518 | 43 | 0 | 0.0 | 1.0 | 0.01 | 0.03 | 0.03 | 92 | 1014.6 |
| 20260509122019 | 43 | 0 | 0.0 | 1.0 | 0.02 | 0.03 | 0.03 | 92 | 1014.6 |
| 20260509121538 | 42 | 0 | 0.0 | 1.0 | 0.02 | 0.03 | 0.03 | 91 | 1014.7 |
| 20260509121019 | 42 | 0 | 0.0 | 1.0 | 0.03 | 0.03 | 0.03 | 91 | 1014.7 |
| 20260509120519 | 42 | 18 | 0.0 | 1.0 | 0.03 | 0.03 | 0.03 | 91 | 1014.7 |
| 20260509120037 | 42 | 18 | 0.0 | 1.0 | 0.03 | 0.03 | 0.03 | 91 | 1014.9 |
| 20260509115518 | 42 | 0 | 0.0 | 2.0 | 0.03 | 0.03 | 0.03 | 91 | 1014.9 |
| 20260509115020 | 42 | 18 | 0.0 | 2.0 | 0.03 | 0.03 | 0.03 | 90 | 1015.0 |
| 20260509114538 | 42 | 99 | 0.0 | 1.0 | 0.03 | 0.03 | 0.03 | 90 | 1015.0 |
| 20260509114020 | 42 | 0 | 0.0 | 1.0 | 0.03 | 0.03 | 0.03 | 90 | 1015.3 |
| 20260509113519 | 42 | 99 | 0.0 | 1.0 | 0.02 | 0.02 | 0.02 | 90 | 1015.4 |
| 20260509113039 | 42 | 131 | 0.0 | 1.0 | 0.02 | 0.02 | 0.02 | 89 | 1015.5 |
| 20260509112519 | 42 | 0 | 0.0 | 0.0 | 0.01 | 0.01 | 0.01 | 89 | 1015.7 |
| 20260509112019 | 42 | 0 | 0.0 | 0.0 | 0.01 | 0.01 | 0.01 | 89 | 1015.6 |
| 20260509111537 | 41 | 0 | 0.0 | 0.0 | 0.01 | 0.01 | 0.01 | 88 | 1015.5 |
| 20260509111020 | 41 | 0 | 0.0 | 0.0 | 0.00 | 0.00 | 0.00 | 88 | 1015.5 |
| 20260509110519 | 41 | 0 | 0.0 | 0.0 | 0.00 | 0.00 | 0.00 | 88 | 1015.5 |
| 20260509110037 | 41 | 0 | 0.0 | 1.0 | 0.00 | 0.00 | 0.00 | 88 | 1015.5 |
| 20260509105523 | 41 | 0 | 0.0 | 1.0 | 0.00 | 0.00 | 0.00 | 89 | 1015.5 |
| 20260509105022 | 41 | 0 | 0.0 | 1.0 | 0.00 | 0.00 | 0.00 | 88 | 1015.4 |
| 20260509104541 | 41 | 0 | 0.0 | 1.0 | 0.00 | 0.00 | 0.00 | 88 | 1015.3 |
| 20260509104020 | 40 | 0 | 0.0 | 1.0 | 0.00 | 0.00 | 0.00 | 88 | 1015.2 |
| 20260509103519 | 40 | 0 | 0.0 | 1.0 | 0.00 | 0.00 | 0.00 | 88 | 1015.2 |
| 20260509103034 | 41 | 148 | 0.0 | 1.0 | 0.00 | 0.00 | 0.00 | 89 | 1015.0 |
| 20260509102519 | 41 | 0 | 0.0 | 1.0 | 0.00 | 0.00 | 0.00 | 90 | 1014.8 |
| 20260509102019 | 40 | 0 | 0.0 | 1.0 | 0.00 | 0.00 | 0.00 | 89 | 1014.6 |
| 20260509101549 | 40 | 0 | 0.0 | 0.0 | 0.00 | 0.00 | 0.00 | 91 | 1014.5 |
| 20260509101024 | 39 | 204 | 0.0 | 0.0 | 0.00 | 0.00 | 0.00 | 90 | 1014.3 |
| 20260509100518 | 39 | 0 | 0.0 | 0.0 | 0.00 | 0.00 | 0.00 | 90 | 1014.2 |
| 20260509100037 | 38 | 0 | 0.0 | 0.0 | 0.00 | 0.00 | 0.00 | 90 | 1014.2 |
| 20260509095520 | 38 | 0 | 0.0 | 0.0 | 0.00 | 0.00 | 0.00 | 90 | 1014.1 |
| 20260509095019 | 38 | 0 | 0.0 | 0.0 | 0.00 | 0.00 | 0.00 | 90 | 1013.8 |
| 20260509094540 | 38 | 0 | 0.0 | 1.0 | 0.00 | 0.00 | 0.00 | 90 | 1014.0 |
| 20260509094019 | 38 | 0 | 0.0 | 1.0 | 0.00 | 0.00 | 0.00 | 91 | 1013.8 |
| 20260509093522 | 37 | 0 | 0.0 | 1.0 | 0.00 | 0.00 | 0.00 | 91 | 1013.7 |
| 20260509093051 | 37 | 0 | 0.0 | 0.0 | 0.00 | 0.00 | 0.00 | 91 | 1013.6 |
| 20260509092519 | 36 | 0 | 0.0 | 0.0 | 0.00 | 0.00 | 0.00 | 91 | 1013.7 |
| 20260509092019 | 36 | 0 | 0.0 | 0.0 | 0.00 | 0.00 | 0.00 | 90 | 1013.8 |
| 20260509091538 | 36 | 0 | 0.0 | 0.0 | 0.00 | 0.00 | 0.00 | 90 | 1013.8 |
| 20260509091019 | 35 | 0 | 0.0 | 0.0 | 0.00 | 0.00 | 0.00 | 90 | 1013.9 |
| 20260509090519 | 35 | 0 | 0.0 | 0.0 | 0.00 | 0.00 | 0.00 | 90 | 1014.1 |
| 20260509090036 | 35 | 0 | 0.0 | 0.0 | 0.00 | 0.00 | 0.00 | 89 | 1013.9 |
| 20260509085522 | 35 | 0 | 0.0 | 0.0 | 0.00 | 0.00 | 0.00 | 89 | 1013.8 |
| 20260509085019 | 35 | 0 | 0.0 | 0.0 | 0.00 | 0.00 | 0.00 | 89 | 1013.7 |
| 20260509084548 | 35 | 0 | 0.0 | 0.0 | 0.00 | 0.00 | 0.00 | 89 | 1013.7 |
| 20260509084018 | 36 | 0 | 0.0 | 1.0 | 0.00 | 0.00 | 0.00 | 89 | 1013.8 |
| 20260509083518 | 36 | 0 | 0.0 | 1.0 | 0.00 | 0.00 | 0.00 | 89 | 1013.8 |
| 20260509083038 | 35 | 0 | 0.0 | 0.0 | 0.00 | 0.00 | 0.00 | 89 | 1013.8 |
| 20260509082519 | 36 | 0 | 0.0 | 0.0 | 0.00 | 0.00 | 0.00 | 89 | 1014.0 |
| 20260509082021 | 36 | 0 | 0.0 | 0.0 | 0.00 | 0.00 | 0.00 | 89 | 1014.1 |
| 20260509081541 | 36 | 0 | 0.0 | 0.0 | 0.00 | 0.00 | 0.00 | 88 | 1014.2 |
| 20260509081020 | 36 | 0 | 0.0 | 0.0 | 0.00 | 0.00 | 0.00 | 88 | 1014.1 |
| 20260509080519 | 36 | 0 | 0.0 | 1.0 | 0.00 | 0.00 | 0.00 | 88 | 1014.2 |
| 20260509080049 | 36 | 0 | 0.0 | 1.0 | 0.00 | 0.00 | 0.00 | 88 | 1014.1 |
| 20260509075523 | 36 | 212 | 0.0 | 1.0 | 0.00 | 0.00 | 0.00 | 88 | 1014.1 |
| 20260509075023 | 36 | 0 | 0.0 | 1.0 | 0.00 | 0.00 | 0.00 | 88 | 1014.1 |
| 20260509074540 | 36 | 0 | 0.0 | 1.0 | 0.00 | 0.00 | 0.00 | 88 | 1014.1 |
| 20260509074019 | 36 | 0 | 0.0 | 0.0 | 0.00 | 0.00 | 0.00 | 88 | 1014.1 |
| 20260509073519 | 37 | 0 | 0.0 | 0.0 | 0.00 | 0.00 | 0.00 | 88 | 1014.2 |
| 20260509073038 | 37 | 0 | 0.0 | 0.0 | 0.00 | 0.00 | 0.00 | 88 | 1014.2 |
| 20260509072519 | 37 | 0 | 0.0 | 0.0 | 0.00 | 0.00 | 0.00 | 88 | 1014.0 |
| 20260509072018 | 37 | 0 | 0.0 | 0.0 | 0.00 | 0.00 | 0.00 | 88 | 1014.0 |
| 20260509071537 | 37 | 0 | 0.0 | 0.0 | 0.00 | 0.00 | 0.00 | 88 | 1014.2 |
| 20260509071020 | 37 | 0 | 0.0 | 0.0 | 0.00 | 0.00 | 0.00 | 88 | 1014.2 |
| 20260509070519 | 37 | 0 | 0.0 | 0.0 | 0.00 | 0.00 | 0.00 | 88 | 1014.1 |
| 20260509070043 | 37 | 0 | 0.0 | 0.0 | 0.00 | 0.00 | 0.00 | 88 | 1014.1 |
| 20260509065518 | 37 | 0 | 0.0 | 0.0 | 0.00 | 0.00 | 0.00 | 87 | 1014.1 |
| 20260509065018 | 37 | 0 | 0.0 | 0.0 | 0.00 | 0.00 | 0.00 | 87 | 1014.1 |
| 20260509064539 | 37 | 0 | 0.0 | 0.0 | 0.00 | 0.00 | 0.00 | 87 | 1014.0 |
| 20260509064022 | 37 | 0 | 0.0 | 0.0 | 0.00 | 0.00 | 0.00 | 87 | 1014.0 |
| 20260509063520 | 37 | 0 | 0.0 | 0.0 | 0.00 | 0.00 | 0.00 | 87 | 1014.1 |
| 20260509063037 | 37 | 0 | 0.0 | 0.0 | 0.00 | 0.00 | 0.00 | 87 | 1014.1 |
| 20260509062519 | 37 | 0 | 0.0 | 0.0 | 0.00 | 0.00 | 0.00 | 87 | 1014.1 |
| 20260509062022 | 37 | 0 | 0.0 | 0.0 | 0.00 | 0.00 | 0.00 | 86 | 1014.0 |
| 20260509061537 | 38 | 0 | 0.0 | 0.0 | 0.00 | 0.00 | 0.00 | 86 | 1014.0 |
| 20260509061022 | 38 | 0 | 0.0 | 0.0 | 0.00 | 0.00 | 0.00 | 86 | 1014.0 |
| 20260509060519 | 38 | 0 | 0.0 | 0.0 | 0.00 | 0.00 | 0.00 | 86 | 1013.9 |
| 20260509060036 | 38 | 0 | 0.0 | 0.0 | 0.00 | 0.00 | 0.00 | 85 | 1013.9 |
| 20260509055518 | 38 | 0 | 0.0 | 0.0 | 0.00 | 0.00 | 0.00 | 85 | 1013.7 |
| 20260509055018 | 38 | 0 | 0.0 | 0.0 | 0.00 | 0.00 | 0.00 | 86 | 1013.7 |
| 20260509054540 | 38 | 0 | 0.0 | 0.0 | 0.00 | 0.00 | 0.00 | 85 | 1013.8 |
| 20260509054019 | 38 | 0 | 0.0 | 0.0 | 0.00 | 0.00 | 0.00 | 85 | 1013.7 |
| 20260509053519 | 39 | 0 | 0.0 | 0.0 | 0.00 | 0.00 | 0.00 | 84 | 1013.6 |
| 20260509053040 | 39 | 0 | 0.0 | 0.0 | 0.00 | 0.00 | 0.00 | 85 | 1013.8 |
| 20260509052518 | 39 | 0 | 0.0 | 0.0 | 0.00 | 0.00 | 0.00 | 85 | 1013.8 |
| 20260509052019 | 39 | 0 | 0.0 | 0.0 | 0.00 | 0.00 | 0.00 | 85 | 1013.6 |
| 20260509051539 | 39 | 0 | 0.0 | 0.0 | 0.00 | 0.00 | 0.00 | 84 | 1013.7 |
| 20260509051019 | 39 | 0 | 0.0 | 0.0 | 0.00 | 0.00 | 0.00 | 84 | 1013.7 |
| 20260509050518 | 39 | 0 | 0.0 | 0.0 | 0.00 | 0.00 | 0.00 | 84 | 1013.8 |
| 20260509050043 | 39 | 0 | 0.0 | 0.0 | 0.00 | 0.00 | 0.00 | 83 | 1013.8 |
| 20260509045519 | 39 | 0 | 0.0 | 0.0 | 0.00 | 0.00 | 0.00 | 83 | 1013.9 |
| 20260509045020 | 40 | 0 | 0.0 | 0.0 | 0.00 | 0.00 | 0.00 | 83 | 1013.8 |
| 20260509044537 | 40 | 0 | 0.0 | 0.0 | 0.00 | 0.00 | 0.00 | 83 | 1013.8 |
| 20260509044018 | 40 | 0 | 0.0 | 0.0 | 0.00 | 0.00 | 0.00 | 82 | 1013.7 |
| 20260509043519 | 40 | 0 | 0.0 | 0.0 | 0.00 | 0.00 | 0.00 | 81 | 1013.8 |
| 20260509043034 | 40 | 0 | 0.0 | 0.0 | 0.00 | 0.00 | 0.00 | 81 | 1013.8 |
| 20260509042520 | 40 | 0 | 0.0 | 0.0 | 0.00 | 0.00 | 0.00 | 80 | 1013.7 |
| 20260509042019 | 41 | 0 | 0.0 | 0.0 | 0.00 | 0.00 | 0.00 | 80 | 1013.8 |
| 20260509041538 | 41 | 0 | 0.0 | 1.0 | 0.00 | 0.00 | 0.00 | 80 | 1013.7 |
| 20260509041019 | 41 | 0 | 0.0 | 1.0 | 0.00 | 0.00 | 0.00 | 80 | 1013.6 |
| 20260509040519 | 41 | 0 | 0.0 | 0.0 | 0.00 | 0.00 | 0.00 | 80 | 1013.5 |
| 20260509040042 | 41 | 0 | 0.0 | 0.0 | 0.00 | 0.00 | 0.00 | 79 | 1013.6 |
| 20260509035519 | 41 | 0 | 0.0 | 0.0 | 0.00 | 0.00 | 0.00 | 79 | 1013.5 |
| 20260509035019 | 41 | 0 | 0.0 | 0.0 | 0.00 | 0.00 | 0.00 | 78 | 1013.4 |
| 20260509034542 | 42 | 0 | 0.0 | 0.0 | 0.00 | 0.00 | 0.00 | 77 | 1013.4 |
| 20260509034021 | 42 | 0 | 0.0 | 0.0 | 0.00 | 0.00 | 0.00 | 77 | 1013.5 |
| 20260509033518 | 42 | 0 | 0.0 | 0.0 | 0.00 | 0.00 | 0.00 | 77 | 1013.6 |
| 20260509033037 | 42 | 0 | 0.0 | 0.0 | 0.00 | 0.00 | 0.00 | 77 | 1013.5 |
| 20260509032520 | 43 | 0 | 0.0 | 0.0 | 0.00 | 0.00 | 0.00 | 77 | 1013.6 |
| 20260509032019 | 43 | 0 | 0.0 | 0.0 | 0.00 | 0.00 | 0.00 | 76 | 1013.6 |
| 20260509031537 | 43 | 0 | 0.0 | 0.0 | 0.00 | 0.00 | 0.00 | 76 | 1013.6 |
| 20260509031019 | 43 | 0 | 0.0 | 0.0 | 0.00 | 0.00 | 0.00 | 75 | 1013.5 |
| 20260509030520 | 43 | 0 | 0.0 | 0.0 | 0.00 | 0.00 | 0.00 | 75 | 1013.5 |
| 20260509030039 | 43 | 0 | 0.0 | 0.0 | 0.00 | 0.00 | 0.00 | 74 | 1013.4 |
| 20260509025519 | 43 | 0 | 0.0 | 0.0 | 0.00 | 0.00 | 0.00 | 74 | 1013.4 |
| 20260509025018 | 43 | 0 | 0.0 | 1.0 | 0.00 | 0.00 | 0.00 | 75 | 1013.4 |
| 20260509024537 | 44 | 0 | 0.0 | 1.0 | 0.00 | 0.00 | 0.00 | 74 | 1013.3 |
| 20260509024018 | 44 | 0 | 0.0 | 0.0 | 0.00 | 0.00 | 0.00 | 74 | 1013.3 |
| 20260509023519 | 44 | 0 | 0.0 | 0.0 | 0.00 | 0.00 | 0.00 | 73 | 1013.2 |
| 20260509023040 | 44 | 0 | 0.0 | 0.0 | 0.00 | 0.00 | 0.00 | 73 | 1013.2 |
| 20260509022518 | 44 | 0 | 0.0 | 0.0 | 0.00 | 0.00 | 0.00 | 72 | 1013.1 |
| 20260509022019 | 45 | 0 | 0.0 | 0.0 | 0.00 | 0.00 | 0.00 | 71 | 1013.1 |
| 20260509021537 | 45 | 0 | 0.0 | 0.0 | 0.00 | 0.00 | 0.00 | 70 | 1013.1 |
| 20260509021022 | 45 | 0 | 0.0 | 0.0 | 0.00 | 0.00 | 0.00 | 70 | 1013.0 |
| 20260509020520 | 46 | 0 | 0.0 | 0.0 | 0.00 | 0.00 | 0.00 | 70 | 1013.0 |
| 20260509020038 | 46 | 0 | 0.0 | 0.0 | 0.00 | 0.00 | 0.00 | 69 | 1012.9 |
| 20260509015520 | 46 | 0 | 0.0 | 0.0 | 0.00 | 0.00 | 0.00 | 68 | 1012.8 |
| 20260509015022 | 47 | 0 | 0.0 | 0.0 | 0.00 | 0.00 | 0.00 | 66 | 1012.8 |
| 20260509014542 | 47 | 0 | 0.0 | 0.0 | 0.00 | 0.00 | 0.00 | 66 | 1012.7 |
| 20260509014019 | 48 | 0 | 0.0 | 1.0 | 0.00 | 0.00 | 0.00 | 66 | 1012.6 |
| 20260509013520 | 48 | 0 | 0.0 | 1.0 | 0.00 | 0.00 | 0.00 | 65 | 1012.5 |
| 20260509013043 | 48 | 0 | 0.0 | 1.0 | 0.00 | 0.00 | 0.00 | 64 | 1012.3 |
| 20260509012519 | 48 | 0 | 0.0 | 1.0 | 0.00 | 0.00 | 0.00 | 64 | 1012.2 |
| 20260509012019 | 48 | 0 | 0.0 | 1.0 | 0.00 | 0.00 | 0.00 | 64 | 1012.0 |
| 20260509011542 | 48 | 0 | 0.0 | 1.0 | 0.00 | 0.00 | 0.00 | 63 | 1011.9 |
| 20260509011019 | 48 | 0 | 0.0 | 1.0 | 0.00 | 0.00 | 0.00 | 63 | 1011.8 |
| 20260509010520 | 48 | 0 | 0.0 | 1.0 | 0.00 | 0.00 | 0.00 | 64 | 1011.7 |
| 20260509010037 | 49 | 0 | 0.0 | 2.0 | 0.00 | 0.00 | 0.00 | 63 | 1011.7 |
| 20260509005520 | 49 | 243 | 0.0 | 2.0 | 0.00 | 0.00 | 0.00 | 62 | 1011.6 |
| 20260509005019 | 49 | 0 | 0.0 | 1.0 | 0.00 | 0.00 | 0.00 | 62 | 1011.5 |
| 20260509004536 | 49 | 0 | 0.0 | 1.0 | 0.00 | 0.00 | 0.00 | 63 | 1011.5 |
| 20260509004022 | 50 | 0 | 0.0 | 0.0 | 0.00 | 0.00 | 0.00 | 60 | 1011.4 |
| 20260509003518 | 50 | 0 | 0.0 | 0.0 | 0.00 | 0.00 | 0.00 | 59 | 1011.2 |
| 20260509003036 | 51 | 0 | 0.0 | 1.0 | 0.00 | 0.00 | 0.00 | 58 | 1011.1 |
| 20260509002521 | 51 | 0 | 0.0 | 2.0 | 0.00 | 0.00 | 0.00 | 57 | 1011.0 |
| 20260509002020 | 52 | 0 | 0.0 | 2.0 | 0.00 | 0.00 | 0.00 | 57 | 1010.9 |
| 20260509001538 | 52 | 0 | 0.0 | 1.0 | 0.00 | 0.00 | 0.00 | 56 | 1010.9 |
| 20260509001020 | 52 | 175 | 0.0 | 1.0 | 0.00 | 0.00 | 0.00 | 55 | 1010.8 |
| 20260509000518 | 52 | 0 | 0.0 | 3.0 | 0.00 | 0.00 | 0.00 | 54 | 1010.7 |
| 20260509000038 | 53 | 0 | 1.0 | 3.0 | 0.00 | 0.00 | 0.00 | 53 | 1010.6 |